createdAt,value
2023-02-04T00:00:07.509Z,81.54
2023-02-04T00:02:34.922Z,81.38
2023-02-04T00:05:01.878Z,81.85
2023-02-04T00:07:28.500Z,81.02
2023-02-04T00:09:55.233Z,82.18
2023-02-04T00:12:22.646Z,82.60
2023-02-04T00:14:49.186Z,82.56
2023-02-04T00:17:15.770Z,82.89
2023-02-04T00:19:42.692Z,82.94
2023-02-04T00:22:10.051Z,82.34
2023-02-04T00:24:37.249Z,82.91
2023-02-04T00:27:05.284Z,83.88
2023-02-04T00:29:31.834Z,84.23
2023-02-04T00:31:58.561Z,83.94
2023-02-04T00:34:27.439Z,84.35
2023-02-04T00:36:54.046Z,83.83
2023-02-04T00:39:20.653Z,84.27
2023-02-04T00:41:47.278Z,84.84
2023-02-04T00:44:14.376Z,84.99
2023-02-04T00:46:42.861Z,85.47
2023-02-04T00:49:10.876Z,85.51
2023-02-04T00:51:39.402Z,85.55
2023-02-04T00:54:07.222Z,86.31
2023-02-04T00:56:34.597Z,85.46
2023-02-04T00:59:01.149Z,86.25
2023-02-04T01:01:27.809Z,85.74
2023-02-04T01:03:54.390Z,85.68
2023-02-04T01:06:21.037Z,84.96
2023-02-04T01:08:47.594Z,85.61
2023-02-04T01:11:14.529Z,84.78
2023-02-04T01:13:41.350Z,84.50
2023-02-04T01:16:08.136Z,85.58
2023-02-04T01:18:34.769Z,85.70
2023-02-04T01:21:01.359Z,84.81
2023-02-04T01:23:28.030Z,85.33
2023-02-04T01:25:54.616Z,84.83
2023-02-04T01:28:21.189Z,84.86
2023-02-04T01:30:47.918Z,85.07
2023-02-04T01:33:14.468Z,84.45
2023-02-04T01:35:41.114Z,85.11
2023-02-04T01:38:07.854Z,84.67
2023-02-04T01:40:34.967Z,85.68
2023-02-04T01:43:01.710Z,85.54
2023-02-04T01:45:30.665Z,85.67
2023-02-04T01:47:57.623Z,84.87
2023-02-04T01:50:24.239Z,85.33
2023-02-04T01:52:51.022Z,85.16
2023-02-04T01:55:21.659Z,84.89
2023-02-04T01:57:50.753Z,85.51
2023-02-04T02:00:23.661Z,85.32
2023-02-04T02:02:52.062Z,85.14
2023-02-04T02:05:24.089Z,85.21
2023-02-04T02:07:53.939Z,85.02
2023-02-04T02:10:21.604Z,85.75
2023-02-04T02:12:48.828Z,84.70
2023-02-04T02:15:16.759Z,83.64
2023-02-04T02:17:43.842Z,84.18
2023-02-04T02:20:14.939Z,83.90
2023-02-04T02:22:59.810Z,85.19
2023-02-04T02:25:26.437Z,85.30
2023-02-04T02:27:54.426Z,84.13
2023-02-04T02:30:21.779Z,84.03
2023-02-04T02:32:50.656Z,83.13
2023-02-04T02:35:17.566Z,83.07
2023-02-04T02:37:44.159Z,83.88
2023-02-04T02:40:13.459Z,84.42
2023-02-04T02:42:41.131Z,83.30
2023-02-04T02:45:15.858Z,84.06
2023-02-04T02:47:43.067Z,84.69
2023-02-04T02:50:15.592Z,85.69
2023-02-04T02:52:42.204Z,85.96
2023-02-04T02:55:18.203Z,85.77
2023-02-04T02:57:46.624Z,86.28
2023-02-04T03:00:21.853Z,88.55
2023-02-04T03:02:59.888Z,87.72
2023-02-04T03:05:29.362Z,86.99
2023-02-04T03:07:57.200Z,87.57
2023-02-04T03:10:23.829Z,87.58
2023-02-04T03:12:51.067Z,87.15
2023-02-04T03:15:17.988Z,86.56
2023-02-04T03:17:46.752Z,86.98
2023-02-04T03:20:15.353Z,87.27
2023-02-04T03:22:42.411Z,86.05
2023-02-04T03:25:08.994Z,86.77
2023-02-04T03:27:35.613Z,87.23
2023-02-04T03:30:02.138Z,86.91
2023-02-04T03:32:28.860Z,86.69
2023-02-04T03:34:55.451Z,87.32
2023-02-04T03:37:22.080Z,87.30
2023-02-04T03:39:48.617Z,87.55
2023-02-04T03:42:15.262Z,87.20
2023-02-04T03:44:41.833Z,87.19
2023-02-04T03:47:08.398Z,88.05
2023-02-04T03:49:36.049Z,87.68
2023-02-04T03:52:04.092Z,86.81
2023-02-04T03:54:30.778Z,86.18
2023-02-04T03:56:57.639Z,87.09
2023-02-04T03:59:24.305Z,86.33
2023-02-04T04:01:52.474Z,87.65
2023-02-04T04:04:19.320Z,88.52
2023-02-04T04:06:45.996Z,88.67
2023-02-04T04:09:12.597Z,88.50
2023-02-04T04:11:39.159Z,88.25
2023-02-04T04:14:05.912Z,88.00
2023-02-04T04:16:32.631Z,88.32
2023-02-04T04:18:59.272Z,89.22
2023-02-04T04:21:25.868Z,89.59
2023-02-04T04:23:52.428Z,89.70
2023-02-04T04:26:20.014Z,90.51
2023-02-04T04:28:46.662Z,89.63
2023-02-04T04:31:13.719Z,89.74
2023-02-04T04:33:40.664Z,89.75
2023-02-04T04:36:07.725Z,89.93
2023-02-04T04:38:34.389Z,89.99
2023-02-04T04:41:01.290Z,90.21
2023-02-04T04:43:27.794Z,89.80
2023-02-04T04:45:54.358Z,88.93
2023-02-04T04:48:21.678Z,88.70
2023-02-04T04:50:48.277Z,88.71
2023-02-04T04:53:14.948Z,88.56
2023-02-04T04:55:41.630Z,88.96
2023-02-04T04:58:09.648Z,89.54
2023-02-04T05:00:36.530Z,89.74
2023-02-04T05:03:03.142Z,90.08
2023-02-04T05:05:29.887Z,89.72
2023-02-04T05:07:57.552Z,91.28
2023-02-04T05:10:24.222Z,90.72
2023-02-04T05:12:51.046Z,90.16
2023-02-04T05:15:17.821Z,90.35
2023-02-04T05:17:44.342Z,90.84
2023-02-04T05:20:11.460Z,90.40
2023-02-04T05:22:38.013Z,92.08
2023-02-04T05:25:04.783Z,91.14
2023-02-04T05:27:31.278Z,91.31
2023-02-04T05:29:57.855Z,90.45
2023-02-04T05:32:24.372Z,90.21
2023-02-04T05:34:51.069Z,89.14
2023-02-04T05:37:18.976Z,88.20
2023-02-04T05:39:45.577Z,88.66
2023-02-04T05:42:12.184Z,87.50
2023-02-04T05:44:38.837Z,86.86
2023-02-04T05:47:05.368Z,86.29
2023-02-04T05:49:32.161Z,84.93
2023-02-04T05:51:59.079Z,85.00
2023-02-04T05:54:26.090Z,84.29
2023-02-04T05:56:52.648Z,85.97
2023-02-04T05:59:19.229Z,85.17
2023-02-04T06:01:45.820Z,85.55
2023-02-04T06:04:12.487Z,84.61
2023-02-04T06:06:39.059Z,85.66
2023-02-04T06:09:05.586Z,85.02
2023-02-04T06:11:32.179Z,85.04
2023-02-04T06:13:59.094Z,85.18
2023-02-04T06:16:25.773Z,85.97
2023-02-04T06:18:52.424Z,85.12
2023-02-04T06:21:19.243Z,84.73
2023-02-04T06:23:45.857Z,85.41
2023-02-04T06:26:12.950Z,84.24
2023-02-04T06:28:39.576Z,84.86
2023-02-04T06:31:06.220Z,85.00
2023-02-04T06:33:32.827Z,84.96
2023-02-04T06:35:59.459Z,85.19
2023-02-04T06:38:26.075Z,85.70
2023-02-04T06:40:53.705Z,85.53
2023-02-04T06:43:21.700Z,85.44
2023-02-04T06:45:48.512Z,85.19
2023-02-04T06:48:15.066Z,85.08
2023-02-04T06:50:41.922Z,84.72
2023-02-04T06:53:08.642Z,84.89
2023-02-04T06:55:35.214Z,83.67
2023-02-04T06:58:02.553Z,83.07
2023-02-04T07:00:31.534Z,83.27
2023-02-04T07:02:58.973Z,83.71
2023-02-04T07:05:25.944Z,83.35
2023-02-04T07:07:52.545Z,84.05
2023-02-04T07:10:20.921Z,82.93
2023-02-04T07:12:47.478Z,82.53
2023-02-04T07:15:14.104Z,82.90
2023-02-04T07:17:40.659Z,83.81
2023-02-04T07:20:07.714Z,84.61
2023-02-04T07:22:34.376Z,84.08
2023-02-04T07:25:00.838Z,83.42
2023-02-04T07:27:27.352Z,83.93
2023-02-04T07:29:53.931Z,83.36
2023-02-04T07:32:20.521Z,82.79
2023-02-04T07:34:48.072Z,82.92
2023-02-04T07:37:15.153Z,84.16
2023-02-04T07:39:41.746Z,83.10
2023-02-04T07:42:08.598Z,83.86
2023-02-04T07:44:43.730Z,83.04
2023-02-04T07:47:10.339Z,81.94
2023-02-04T07:49:36.922Z,81.37
2023-02-04T07:52:03.514Z,81.21
2023-02-04T07:54:30.183Z,82.20
2023-02-04T07:56:56.686Z,81.99
2023-02-04T07:59:23.374Z,81.90
2023-02-04T08:01:49.968Z,81.28
2023-02-04T08:04:16.663Z,82.41
2023-02-04T08:06:43.202Z,83.35
2023-02-04T08:09:09.880Z,82.78
2023-02-04T08:11:36.403Z,82.60
2023-02-04T08:14:03.053Z,84.06
2023-02-04T08:16:29.762Z,84.31
2023-02-04T08:18:56.341Z,84.91
2023-02-04T08:21:23.598Z,84.92
2023-02-04T08:23:50.257Z,84.67
2023-02-04T08:26:16.785Z,84.36
2023-02-04T08:28:43.373Z,84.75
2023-02-04T08:31:11.927Z,84.23
2023-02-04T08:33:39.767Z,85.18
2023-02-04T08:36:07.492Z,85.26
2023-02-04T08:38:34.316Z,85.62
2023-02-04T08:41:01.303Z,86.01
2023-02-04T08:43:28.125Z,85.43
2023-02-04T08:45:54.914Z,85.17
2023-02-04T08:48:21.478Z,84.06
2023-02-04T08:50:48.050Z,85.20
2023-02-04T08:53:14.692Z,83.56
2023-02-04T08:55:41.258Z,85.37
2023-02-04T08:58:08.053Z,84.60
2023-02-04T09:00:35.145Z,83.11
2023-02-04T09:03:01.920Z,84.12
2023-02-04T09:05:28.439Z,83.37
2023-02-04T09:07:55.074Z,84.25
2023-02-04T09:10:21.715Z,84.80
2023-02-04T09:12:48.328Z,84.31
2023-02-04T09:15:15.024Z,85.30
2023-02-04T09:17:43.789Z,83.93
2023-02-04T09:20:10.839Z,83.57
2023-02-04T09:22:37.791Z,83.94
2023-02-04T09:25:04.718Z,83.94
2023-02-04T09:27:31.270Z,84.31
2023-02-04T09:29:57.883Z,83.96
2023-02-04T09:32:24.534Z,84.14
2023-02-04T09:34:51.052Z,84.43
2023-02-04T09:37:17.906Z,84.46
2023-02-04T09:39:44.452Z,83.90
2023-02-04T09:42:14.932Z,84.70
2023-02-04T09:44:42.112Z,83.89
2023-02-04T09:47:11.865Z,83.11
2023-02-04T09:49:38.784Z,83.09
2023-02-04T09:52:12.174Z,83.16
2023-02-04T09:54:38.830Z,81.79
2023-02-04T09:57:20.032Z,81.53
2023-02-04T09:59:47.231Z,81.55
2023-02-04T10:02:25.622Z,82.78
2023-02-04T10:04:57.773Z,82.71
2023-02-04T10:07:25.229Z,82.03
2023-02-04T10:09:54.352Z,82.04
2023-02-04T10:12:21.577Z,81.22
2023-02-04T10:14:48.730Z,79.41
2023-02-04T10:17:20.934Z,79.46
2023-02-04T10:19:48.086Z,79.23
2023-02-04T10:22:18.743Z,78.62
2023-02-04T10:24:45.531Z,78.07
2023-02-04T10:27:16.067Z,77.31
2023-02-04T10:29:43.823Z,78.50
2023-02-04T10:32:28.860Z,78.16
2023-02-04T10:35:01.188Z,77.59
2023-02-04T10:37:28.049Z,78.78
2023-02-04T10:39:54.774Z,79.52
2023-02-04T10:42:28.523Z,79.44
2023-02-04T10:44:55.598Z,79.06
2023-02-04T10:47:23.672Z,79.82
2023-02-04T10:49:58.859Z,78.71
2023-02-04T10:52:39.891Z,78.64
2023-02-04T10:55:13.565Z,78.08
2023-02-04T10:57:42.459Z,77.36
2023-02-04T11:00:21.459Z,78.27
2023-02-04T11:02:59.143Z,77.83
2023-02-04T11:05:31.213Z,78.18
2023-02-04T11:07:58.380Z,77.41
2023-02-04T11:10:29.999Z,76.68
2023-02-04T11:12:56.538Z,77.22
2023-02-04T11:15:38.469Z,78.19
2023-02-04T11:18:21.871Z,77.59
2023-02-04T11:20:54.974Z,74.56
2023-02-04T11:23:28.370Z,72.77
2023-02-04T11:26:07.599Z,72.92
2023-02-04T11:28:45.637Z,71.82
2023-02-04T11:31:26.689Z,74.46
2023-02-04T11:34:26.253Z,73.94
2023-02-04T11:37:01.890Z,75.04
2023-02-04T11:39:34.150Z,75.91
2023-02-04T11:42:01.455Z,76.84
2023-02-04T11:44:28.610Z,76.43
2023-02-04T11:46:56.458Z,76.33
2023-02-04T11:49:25.337Z,75.97
2023-02-04T11:52:08.511Z,76.82
2023-02-04T11:54:36.421Z,76.64
2023-02-04T11:57:03.584Z,76.35
2023-02-04T11:59:30.276Z,76.87
2023-02-04T12:02:15.187Z,78.20
2023-02-04T12:04:51.618Z,78.65
2023-02-04T12:07:24.586Z,78.16
2023-02-04T12:09:51.446Z,76.86
2023-02-04T12:12:26.926Z,77.50
2023-02-04T12:14:57.581Z,76.97
2023-02-04T12:17:24.205Z,76.65
2023-02-04T12:19:50.723Z,77.04
2023-02-04T12:22:17.301Z,76.23
2023-02-04T12:24:44.995Z,76.63
2023-02-04T12:27:11.683Z,77.49
2023-02-04T12:29:39.067Z,79.09
2023-02-04T12:32:05.775Z,79.04
2023-02-04T12:34:32.285Z,79.83
2023-02-04T12:36:58.905Z,80.25
2023-02-04T12:39:25.651Z,80.29
2023-02-04T12:41:52.272Z,78.99
2023-02-04T12:44:19.061Z,78.43
2023-02-04T12:46:45.930Z,77.07
2023-02-04T12:49:12.651Z,78.06
2023-02-04T12:51:39.278Z,79.10
2023-02-04T12:54:06.030Z,78.50
2023-02-04T12:56:32.668Z,78.49
2023-02-04T12:58:59.244Z,78.28
2023-02-04T13:01:25.981Z,79.18
2023-02-04T13:03:52.533Z,79.16
2023-02-04T13:06:19.045Z,78.70
2023-02-04T13:08:45.604Z,79.34
2023-02-04T13:11:12.314Z,78.18
2023-02-04T13:13:38.966Z,79.10
2023-02-04T13:16:05.762Z,77.64
2023-02-04T13:18:34.112Z,77.21
2023-02-04T13:21:00.764Z,74.53
2023-02-04T13:23:27.462Z,73.85
2023-02-04T13:25:54.053Z,73.50
2023-02-04T13:28:20.674Z,72.34
2023-02-04T13:30:47.417Z,72.59
2023-02-04T13:33:14.081Z,71.76
2023-02-04T13:35:40.829Z,75.10
2023-02-04T13:38:07.412Z,73.58
2023-02-04T13:40:34.163Z,73.72
2023-02-04T13:43:00.771Z,72.36
2023-02-04T13:45:27.656Z,72.02
2023-02-04T13:47:54.168Z,70.95
2023-02-04T13:50:20.776Z,71.24
2023-02-04T13:52:47.257Z,72.53
2023-02-04T13:55:13.912Z,70.79
2023-02-04T13:57:40.416Z,69.97
2023-02-04T14:00:08.254Z,70.36
2023-02-04T14:02:41.081Z,67.89
2023-02-04T14:05:07.744Z,67.63
2023-02-04T14:07:34.381Z,67.97
2023-02-04T14:10:01.011Z,67.54
2023-02-04T14:12:27.833Z,67.93
2023-02-04T14:14:54.451Z,67.25
2023-02-04T14:17:21.008Z,67.09
2023-02-04T14:19:47.544Z,66.75
2023-02-04T14:22:14.130Z,67.51
2023-02-04T14:24:42.500Z,66.74
2023-02-04T14:27:10.567Z,68.00
2023-02-04T14:29:37.604Z,67.79
2023-02-04T14:32:04.508Z,66.90
2023-02-04T14:34:31.168Z,67.91
2023-02-04T14:36:57.898Z,68.80
2023-02-04T14:39:24.417Z,69.29
2023-02-04T14:41:51.103Z,69.16
2023-02-04T14:44:20.654Z,68.26
2023-02-04T14:46:48.903Z,68.86
2023-02-04T14:49:18.705Z,68.53
2023-02-04T14:51:45.369Z,67.73
2023-02-04T14:54:12.019Z,66.60
2023-02-04T14:56:38.805Z,66.40
2023-02-04T14:59:05.620Z,63.97
2023-02-04T15:01:32.762Z,63.43
2023-02-04T15:04:02.781Z,64.12
2023-02-04T15:06:30.039Z,63.80
2023-02-04T15:08:57.108Z,63.69
2023-02-04T15:11:23.694Z,65.17
2023-02-04T15:13:50.195Z,64.68
2023-02-04T15:16:16.834Z,66.07
2023-02-04T15:18:43.595Z,66.09
2023-02-04T15:21:10.189Z,66.40
2023-02-04T15:23:37.178Z,67.27
2023-02-04T15:26:04.014Z,67.04
2023-02-04T15:28:31.319Z,67.24
2023-02-04T15:30:58.090Z,69.24
2023-02-04T15:33:24.638Z,70.09
2023-02-04T15:35:51.167Z,69.76
2023-02-04T15:38:17.860Z,69.34
2023-02-04T15:40:44.422Z,69.94
2023-02-04T15:43:10.949Z,70.17
2023-02-04T15:45:41.219Z,70.15
2023-02-04T15:48:08.384Z,69.81
2023-02-04T15:50:35.132Z,70.64
2023-02-04T15:53:02.164Z,69.86
2023-02-04T15:55:28.921Z,70.32
2023-02-04T15:57:56.276Z,70.89
2023-02-04T16:00:23.037Z,70.10
2023-02-04T16:02:50.045Z,69.14
2023-02-04T16:05:17.014Z,68.85
2023-02-04T16:07:43.583Z,69.33
2023-02-04T16:10:11.194Z,69.32
2023-02-04T16:12:37.897Z,68.86
2023-02-04T16:15:04.739Z,69.35
2023-02-04T16:17:31.752Z,69.97
2023-02-04T16:19:58.398Z,69.40
2023-02-04T16:22:24.996Z,69.52
2023-02-04T16:24:52.771Z,70.25
2023-02-04T16:27:19.840Z,70.45
2023-02-04T16:29:47.129Z,69.37
2023-02-04T16:32:14.296Z,69.52
2023-02-04T16:34:41.579Z,68.74
2023-02-04T16:37:09.458Z,68.29
2023-02-04T16:39:38.851Z,68.95
2023-02-04T16:42:08.606Z,68.83
2023-02-04T16:44:38.946Z,68.40
2023-02-04T16:47:07.054Z,68.91
2023-02-04T16:49:34.124Z,68.01
2023-02-04T16:52:04.188Z,67.92
2023-02-04T16:54:31.992Z,69.34
2023-02-04T16:57:00.210Z,69.24
2023-02-04T16:59:28.681Z,68.79
2023-02-04T17:02:00.406Z,69.29
2023-02-04T17:04:27.457Z,69.20
2023-02-04T17:06:53.981Z,69.37
2023-02-04T17:09:20.617Z,68.85
2023-02-04T17:11:47.152Z,68.46
2023-02-04T17:14:17.360Z,68.82
2023-02-04T17:16:45.645Z,68.28
2023-02-04T17:19:13.764Z,69.21
2023-02-04T17:21:40.636Z,68.35
2023-02-04T17:24:08.382Z,68.09
2023-02-04T17:26:40.299Z,69.36
2023-02-04T17:29:09.400Z,68.89
2023-02-04T17:31:36.258Z,68.51
2023-02-04T17:34:03.226Z,68.66
2023-02-04T17:36:31.237Z,69.86
2023-02-04T17:38:58.397Z,70.10
2023-02-04T17:41:25.089Z,69.18
2023-02-04T17:43:52.232Z,69.40
2023-02-04T17:46:18.818Z,68.91
2023-02-04T17:48:45.660Z,68.79
2023-02-04T17:51:12.379Z,69.68
2023-02-04T17:53:40.436Z,68.99
2023-02-04T17:56:12.092Z,68.22
2023-02-04T17:58:39.046Z,67.90
2023-02-04T18:01:11.562Z,67.25
2023-02-04T18:03:39.209Z,67.25
2023-02-04T18:06:23.618Z,66.64
2023-02-04T18:08:51.678Z,66.51
2023-02-04T18:11:22.997Z,65.94
2023-02-04T18:13:50.153Z,65.65
2023-02-04T18:16:27.059Z,66.84
2023-02-04T18:19:05.502Z,67.29
2023-02-04T18:21:32.442Z,67.15
2023-02-04T18:24:22.095Z,69.18
2023-02-04T18:26:52.391Z,67.54
2023-02-04T18:29:37.364Z,67.33
2023-02-04T18:32:15.786Z,68.20
2023-02-04T18:34:45.761Z,66.51
2023-02-04T18:37:36.355Z,66.88
2023-02-04T18:40:08.986Z,67.32
2023-02-04T18:42:44.212Z,67.07
2023-02-04T18:45:24.996Z,67.81
2023-02-04T18:47:56.951Z,67.41
2023-02-04T18:50:32.857Z,67.88
2023-02-04T18:53:12.397Z,66.68
2023-02-04T18:55:43.233Z,68.53
2023-02-04T18:58:33.878Z,67.52
2023-02-04T19:01:03.227Z,68.13
2023-02-04T19:03:33.348Z,68.11
2023-02-04T19:06:02.313Z,68.43
2023-02-04T19:08:43.615Z,68.72
2023-02-04T19:11:37.357Z,68.56
2023-02-04T19:14:30.445Z,69.10
2023-02-04T19:17:16.926Z,67.84
2023-02-04T19:19:47.120Z,67.27
2023-02-04T19:22:17.596Z,68.47
2023-02-04T19:24:45.208Z,69.29
2023-02-04T19:27:29.698Z,68.25
2023-02-04T19:29:59.481Z,67.38
2023-02-04T19:32:28.783Z,67.26
2023-02-04T19:34:59.571Z,67.84
2023-02-04T19:37:33.625Z,68.38
2023-02-04T19:40:01.505Z,67.29
2023-02-04T19:42:33.620Z,69.36
2023-02-04T19:45:02.794Z,68.93
2023-02-04T19:47:40.587Z,67.80
2023-02-04T19:50:13.423Z,68.07
2023-02-04T19:52:52.309Z,67.85
2023-02-04T19:55:35.101Z,67.71
2023-02-04T19:58:17.742Z,67.23
2023-02-04T20:00:51.461Z,67.58
2023-02-04T20:03:20.948Z,66.23
2023-02-04T20:05:47.636Z,67.71
2023-02-04T20:08:37.734Z,67.84
2023-02-04T20:11:36.857Z,69.06
2023-02-04T20:14:15.676Z,69.25
2023-02-04T20:16:58.345Z,69.40
2023-02-04T20:19:34.426Z,68.68
2023-02-04T20:22:23.359Z,68.77
2023-02-04T20:24:52.914Z,68.65
2023-02-04T20:27:27.418Z,68.17
2023-02-04T20:30:26.649Z,67.50
2023-02-04T20:32:58.515Z,67.02
2023-02-04T20:35:28.412Z,66.21
2023-02-04T20:37:57.757Z,66.98
2023-02-04T20:40:35.704Z,67.45
2023-02-04T20:43:16.092Z,68.17
2023-02-04T20:45:55.676Z,68.48
2023-02-04T20:48:32.864Z,68.30
2023-02-04T20:51:02.786Z,68.89
2023-02-04T20:53:38.676Z,68.07
2023-02-04T20:56:54.127Z,68.37
2023-02-04T20:59:20.745Z,68.81
2023-02-04T21:01:49.981Z,68.18
2023-02-04T21:04:33.787Z,67.61
2023-02-04T21:07:06.588Z,68.12
2023-02-04T21:09:34.446Z,67.84
2023-02-04T21:12:02.320Z,66.21
2023-02-04T21:14:29.818Z,67.84
2023-02-04T21:16:56.658Z,67.76
2023-02-04T21:19:25.206Z,66.70
2023-02-04T21:21:52.349Z,66.81
2023-02-04T21:24:18.997Z,67.35
2023-02-04T21:26:45.594Z,66.22
2023-02-04T21:29:12.366Z,66.30
2023-02-04T21:31:39.344Z,68.68
2023-02-04T21:34:06.426Z,67.99
2023-02-04T21:36:33.175Z,67.22
2023-02-04T21:39:00.180Z,67.15
2023-02-04T21:41:26.797Z,66.91
2023-02-04T21:43:53.774Z,65.54
2023-02-04T21:46:20.650Z,66.31
2023-02-04T21:48:47.491Z,65.46
2023-02-04T21:51:15.192Z,65.59
2023-02-04T21:53:42.162Z,65.76
2023-02-04T21:56:09.392Z,66.22
2023-02-04T21:58:36.456Z,66.46
2023-02-04T22:01:03.141Z,66.58
2023-02-04T22:03:29.757Z,66.60
2023-02-04T22:05:56.288Z,66.11
2023-02-04T22:08:22.964Z,65.45
2023-02-04T22:10:49.517Z,65.26
2023-02-04T22:13:16.110Z,64.98
2023-02-04T22:15:42.734Z,65.26
2023-02-04T22:18:09.497Z,65.12
2023-02-04T22:20:38.003Z,64.88
2023-02-04T22:23:05.725Z,65.71
2023-02-04T22:25:32.540Z,66.28
2023-02-04T22:27:59.504Z,66.57
2023-02-04T22:30:26.251Z,67.41
2023-02-04T22:32:53.004Z,67.56
2023-02-04T22:35:19.731Z,68.54
2023-02-04T22:37:46.433Z,67.73
2023-02-04T22:40:13.507Z,68.26
2023-02-04T22:42:40.148Z,68.34
2023-02-04T22:45:07.905Z,68.36
2023-02-04T22:47:34.485Z,67.00
2023-02-04T22:50:01.078Z,68.07
2023-02-04T22:52:27.903Z,67.90
2023-02-04T22:54:54.509Z,67.66
2023-02-04T22:57:21.236Z,68.33
2023-02-04T22:59:47.889Z,68.65
2023-02-04T23:02:14.514Z,68.10
2023-02-04T23:04:43.914Z,68.69
2023-02-04T23:07:12.077Z,68.63
2023-02-04T23:09:38.698Z,66.49
2023-02-04T23:12:14.860Z,66.72
2023-02-04T23:14:44.257Z,66.35
2023-02-04T23:17:11.447Z,66.45
2023-02-04T23:19:38.070Z,66.79
2023-02-04T23:22:06.304Z,67.38
2023-02-04T23:24:33.340Z,67.55
2023-02-04T23:27:01.384Z,66.96
2023-02-04T23:29:28.461Z,67.50
2023-02-04T23:31:55.949Z,68.37
2023-02-04T23:34:22.732Z,67.97
2023-02-04T23:36:51.095Z,68.08
2023-02-04T23:39:21.534Z,68.23
2023-02-04T23:41:49.095Z,68.44
2023-02-04T23:44:15.886Z,69.59
2023-02-04T23:46:42.563Z,69.37
2023-02-04T23:49:09.580Z,69.16
2023-02-04T23:51:36.243Z,69.79
2023-02-04T23:54:03.401Z,69.04
2023-02-04T23:56:30.278Z,68.97
2023-02-04T23:58:57.009Z,69.12
